Austin, Mississippi
Current Conditions -  °F | °C
As of 1:15 PM on Friday 31 Oct 2014 (Local Time) from KUTA Reporting Station
Broken Clouds Broken Clouds  
Wind Chill: 57°   Ceiling: 3600
Heat Index: 57°   Visibility: 10mi
Dew Point: 45°   Wind: 18mph
Humidity: 63%   Direction: 350°N
Pressure: 30.16"   Gusts: 26mph
Location:  34.6827°N, 90.3615°W
Report Text: KUTA 311815Z AUTO 35016G23KT 10SM BKN036 BKN045 14/07 A3016 RMK AO2
Loading
Personal Weather Stations






























Interactive Weather Map
Tropical Storm Tracking
New forecast layout! Learn more

10-Day Weather Forecast

Advertisements
Track Severe Weather on mobile